Time;durP1;ratioP1;P1;durP2;ratioP2;P2;SDS_P1;SDS_P2;PMS_P1;PMS_P2;Temp;Humidity;BMP_temperature;BMP_pressure;BME280_temperature;BME280_humidity;BME280_pressure;Samples;Min_cycle;Max_cycle;Signal;HPM_P1;HPM_P2
2021/03/07 00:02:08;;;;;;;14.73;8.00;;;-1.00;99.90;;;;;;5033706;28;20242;-80
2021/03/07 00:04:53;;;;;;;13.90;8.27;;;-1.10;99.90;;;;;;5033416;28;20200;-80
2021/03/07 00:07:39;;;;;;;14.33;7.90;;;-1.10;99.90;;;;;;5033660;28;20270;-80
2021/03/07 00:10:24;;;;;;;14.90;8.33;;;-1.10;99.90;;;;;;5031464;28;20250;-80
2021/03/07 00:13:09;;;;;;;15.83;7.70;;;-1.10;99.90;;;;;;5027138;28;20413;-80
2021/03/07 00:15:53;;;;;;;14.17;8.07;;;-1.20;99.90;;;;;;5031164;28;20206;-80
2021/03/07 00:18:38;;;;;;;15.33;7.83;;;-1.20;99.90;;;;;;5033327;28;20211;-80
2021/03/07 00:21:23;;;;;;;15.07;8.20;;;-1.20;99.90;;;;;;5025826;28;20230;-79
2021/03/07 00:24:09;;;;;;;15.03;7.50;;;-1.20;99.90;;;;;;5034015;28;20235;-80
2021/03/07 00:26:54;;;;;;;13.80;7.70;;;-1.20;99.90;;;;;;5019117;28;20199;-80
2021/03/07 00:29:39;;;;;;;15.17;8.43;;;-1.20;99.90;;;;;;5031074;28;20227;-80
2021/03/07 00:32:24;;;;;;;14.53;8.73;;;-1.20;99.90;;;;;;5032956;28;20227;-80
2021/03/07 00:35:10;;;;;;;14.07;7.80;;;-1.30;99.90;;;;;;5047727;28;20680;-79
2021/03/07 00:37:55;;;;;;;17.90;8.27;;;-1.30;99.90;;;;;;5031149;28;20207;-80
2021/03/07 00:40:41;;;;;;;17.90;7.80;;;-1.30;99.90;;;;;;5024018;28;20307;-80
2021/03/07 00:43:26;;;;;;;16.10;8.13;;;-1.30;99.90;;;;;;5031846;28;20315;-79
2021/03/07 00:46:11;;;;;;;15.87;7.67;;;-1.40;99.90;;;;;;5032494;28;20203;-80
2021/03/07 00:48:56;;;;;;;13.13;7.30;;;-1.40;99.90;;;;;;5034711;28;20290;-79
2021/03/07 00:51:41;;;;;;;15.43;7.83;;;-1.40;99.90;;;;;;5047471;28;20712;-80
2021/03/07 00:54:25;;;;;;;15.57;7.83;;;-1.40;99.90;;;;;;5020502;28;20258;-80
2021/03/07 00:57:11;;;;;;;13.03;7.80;;;-1.30;99.90;;;;;;5034036;28;20218;-79
2021/03/07 00:59:56;;;;;;;16.03;8.13;;;-1.40;99.90;;;;;;5041002;28;20251;-80
2021/03/07 01:02:40;;;;;;;12.73;7.30;;;-1.50;99.90;;;;;;5032762;28;20242;-79
2021/03/07 01:05:28;;;;;;;16.13;7.27;;;-1.50;99.90;;;;;;5034430;28;20578;-78
2021/03/07 01:08:13;;;;;;;11.83;6.93;;;-1.50;99.90;;;;;;5036062;28;20338;-80
2021/03/07 01:10:58;;;;;;;15.87;7.40;;;-1.50;99.90;;;;;;5028357;28;20207;-80
2021/03/07 01:13:43;;;;;;;14.03;7.73;;;-1.50;99.90;;;;;;5037148;28;20276;-79
2021/03/07 01:16:28;;;;;;;12.97;7.20;;;-1.60;99.90;;;;;;5024447;28;20579;-80
2021/03/07 01:19:13;;;;;;;12.70;7.60;;;-1.60;99.90;;;;;;5035277;28;20302;-79
2021/03/07 01:21:57;;;;;;;16.37;8.57;;;-1.60;99.90;;;;;;5023113;28;20723;-79
2021/03/07 01:24:43;;;;;;;16.63;7.73;;;-1.60;99.90;;;;;;5035756;28;20289;-80
2021/03/07 01:27:28;;;;;;;11.63;6.60;;;-1.60;99.90;;;;;;5033717;28;20223;-79
2021/03/07 01:30:15;;;;;;;12.53;7.27;;;-1.60;99.90;;;;;;5030679;28;20230;-80
2021/03/07 01:33:01;;;;;;;15.93;7.43;;;-1.60;99.90;;;;;;5032874;28;20239;-78
2021/03/07 01:35:46;;;;;;;12.63;7.23;;;-1.70;99.90;;;;;;5035711;28;20246;-80
2021/03/07 01:38:32;;;;;;;14.40;7.77;;;-1.70;99.90;;;;;;5034957;28;20219;-80
2021/03/07 01:41:16;;;;;;;14.10;7.27;;;-1.70;99.90;;;;;;5034439;28;20235;-80
2021/03/07 01:44:01;;;;;;;10.97;6.87;;;-1.70;99.90;;;;;;5033105;28;20754;-80
2021/03/07 01:46:47;;;;;;;15.77;7.43;;;-1.70;99.90;;;;;;5035124;28;20346;-79
2021/03/07 01:49:32;;;;;;;13.00;7.37;;;-1.70;99.90;;;;;;5031659;28;20208;-79
2021/03/07 01:52:18;;;;;;;14.27;7.03;;;-1.70;99.90;;;;;;5035085;28;20226;-79
2021/03/07 01:55:03;;;;;;;14.73;8.03;;;-1.70;99.90;;;;;;5029920;28;20287;-78
2021/03/07 01:57:53;;;;;;;13.93;7.53;;;-1.80;99.90;;;;;;5031841;28;20703;-80
2021/03/07 02:00:38;;;;;;;14.10;7.50;;;-1.80;99.90;;;;;;5034553;28;20239;-80
2021/03/07 02:03:24;;;;;;;13.53;6.90;;;-1.80;99.90;;;;;;5030042;28;20227;-80
2021/03/07 02:06:09;;;;;;;13.93;7.17;;;-1.80;99.90;;;;;;5029881;28;20211;-80
2021/03/07 02:08:53;;;;;;;14.80;7.90;;;-1.90;99.90;;;;;;5041897;28;20233;-80
2021/03/07 02:11:40;;;;;;;15.07;7.20;;;-1.90;99.90;;;;;;5033806;28;20301;-78
2021/03/07 02:14:28;;;;;;;14.53;7.70;;;-1.90;99.90;;;;;;5033810;28;20243;-80
2021/03/07 02:17:13;;;;;;;14.27;7.33;;;-1.90;99.90;;;;;;5035919;28;20662;-79
2021/03/07 02:19:59;;;;;;;16.83;8.23;;;-1.90;99.90;;;;;;5034251;28;20274;-80
2021/03/07 02:22:52;;;;;;;15.47;7.80;;;-1.90;99.90;;;;;;5021306;28;20224;-78
2021/03/07 02:25:38;;;;;;;11.93;7.27;;;-2.00;99.90;;;;;;5025147;28;20207;-78
2021/03/07 02:28:26;;;;;;;12.87;7.90;;;-1.90;99.90;;;;;;5034310;28;20731;-79
2021/03/07 02:31:12;;;;;;;15.10;7.63;;;-2.00;99.90;;;;;;5029354;28;20746;-79
2021/03/07 02:34:03;;;;;;;13.93;7.10;;;-2.00;99.90;;;;;;5023837;28;20206;-80
2021/03/07 02:36:51;;;;;;;15.60;7.47;;;-2.00;99.90;;;;;;5035210;28;20235;-79
2021/03/07 02:39:38;;;;;;;12.97;6.77;;;-2.00;99.90;;;;;;5032301;28;20223;-80
2021/03/07 02:42:27;;;;;;;14.40;7.13;;;-2.10;99.90;;;;;;5032240;28;20766;-80
2021/03/07 02:45:16;;;;;;;11.33;6.77;;;-2.10;99.90;;;;;;5030124;28;20238;-79
2021/03/07 02:48:01;;;;;;;14.53;8.00;;;-2.10;99.90;;;;;;5031759;28;20204;-80
2021/03/07 02:50:47;;;;;;;13.13;6.33;;;-2.10;99.90;;;;;;5032063;28;20580;-80
2021/03/07 02:53:33;;;;;;;20.70;7.63;;;-2.10;99.90;;;;;;5034242;28;20215;-79
2021/03/07 02:56:22;;;;;;;13.77;7.67;;;-2.10;99.90;;;;;;5034531;28;20242;-80
2021/03/07 02:59:11;;;;;;;14.57;7.37;;;-2.20;99.90;;;;;;5038970;28;20751;-79
2021/03/07 03:01:59;;;;;;;12.90;7.63;;;-2.20;99.90;;;;;;5046040;28;20771;-79
2021/03/07 03:04:44;;;;;;;17.47;7.93;;;-2.20;99.90;;;;;;5022975;28;20227;-80
2021/03/07 03:07:33;;;;;;;17.60;7.07;;;-2.20;99.90;;;;;;5033559;28;20211;-79
2021/03/07 03:10:19;;;;;;;16.00;7.23;;;-2.20;99.90;;;;;;5034767;28;20215;-79
2021/03/07 03:13:05;;;;;;;13.33;7.37;;;-2.30;99.90;;;;;;5032667;28;20289;-80
2021/03/07 03:15:53;;;;;;;14.43;7.67;;;-2.20;99.90;;;;;;5033349;28;20302;-80
2021/03/07 03:18:38;;;;;;;18.17;7.20;;;-2.30;99.90;;;;;;5034051;28;20267;-80
2021/03/07 03:21:24;;;;;;;15.90;7.47;;;-2.30;99.90;;;;;;5023733;28;20238;-80
2021/03/07 03:24:10;;;;;;;13.20;7.37;;;-2.30;99.90;;;;;;5032677;28;20283;-77
2021/03/07 03:27:01;;;;;;;15.17;7.20;;;-2.40;99.90;;;;;;5043093;28;20234;-79
2021/03/07 03:29:46;;;;;;;14.27;7.17;;;-2.30;99.90;;;;;;5026668;28;20199;-78
2021/03/07 03:32:32;;;;;;;12.93;6.73;;;-2.40;99.90;;;;;;5033632;28;20297;-80
2021/03/07 03:35:18;;;;;;;13.40;7.57;;;-2.40;99.90;;;;;;5020434;28;20219;-79
2021/03/07 03:38:03;;;;;;;10.57;6.77;;;-2.40;99.90;;;;;;5033512;28;20291;-80
2021/03/07 03:40:52;;;;;;;15.63;7.00;;;-2.40;99.90;;;;;;5043870;28;20569;-79
2021/03/07 03:43:39;;;;;;;11.50;6.67;;;-2.40;99.90;;;;;;5033893;28;20588;-79
2021/03/07 03:46:25;;;;;;;14.63;7.50;;;-2.40;99.90;;;;;;5026710;28;20290;-79
2021/03/07 03:49:17;;;;;;;14.73;7.70;;;-2.50;99.90;;;;;;5033812;28;20219;-80
2021/03/07 03:52:05;;;;;;;13.47;6.77;;;-2.50;99.90;;;;;;5033301;28;20246;-80
2021/03/07 03:54:56;;;;;;;15.43;8.37;;;-2.50;99.90;;;;;;5030687;28;20246;-79
2021/03/07 03:57:43;;;;;;;14.90;7.97;;;-2.50;99.90;;;;;;5028629;28;20289;-80
2021/03/07 04:00:29;;;;;;;14.13;7.63;;;-2.50;99.90;;;;;;5033142;28;20255;-78
2021/03/07 04:03:16;;;;;;;18.70;7.90;;;-2.60;99.90;;;;;;5022907;28;20275;-79
2021/03/07 04:06:02;;;;;;;12.73;7.37;;;-2.60;99.90;;;;;;5021324;28;20207;-79
2021/03/07 04:08:49;;;;;;;16.60;7.87;;;-2.60;99.90;;;;;;5033293;28;20346;-80
2021/03/07 04:11:36;;;;;;;12.13;7.10;;;-2.50;99.90;;;;;;5024096;28;20277;-79
2021/03/07 04:14:23;;;;;;;13.60;7.57;;;-2.60;99.90;;;;;;5021086;28;20211;-79
2021/03/07 04:17:08;;;;;;;14.57;7.00;;;-2.60;99.90;;;;;;5032874;28;20216;-80
2021/03/07 04:19:54;;;;;;;14.83;7.67;;;-2.60;99.90;;;;;;5031199;28;20690;-78
2021/03/07 04:22:41;;;;;;;12.10;7.13;;;-2.60;99.90;;;;;;5032617;28;20234;-80
2021/03/07 04:25:26;;;;;;;14.27;7.60;;;-2.60;99.90;;;;;;5037017;28;20208;-78
2021/03/07 04:28:11;;;;;;;11.20;7.10;;;-2.60;99.90;;;;;;5030435;28;20234;-79
2021/03/07 04:30:57;;;;;;;13.33;7.33;;;-2.70;99.90;;;;;;5036460;28;20203;-80
2021/03/07 04:33:42;;;;;;;15.77;6.90;;;-2.70;99.90;;;;;;5037329;28;20207;-79
2021/03/07 04:36:28;;;;;;;13.87;7.60;;;-2.70;99.90;;;;;;5030317;28;20691;-78
2021/03/07 04:39:14;;;;;;;13.37;7.40;;;-2.70;99.90;;;;;;5033663;28;20311;-80
2021/03/07 04:42:00;;;;;;;15.70;8.07;;;-2.70;99.90;;;;;;5036940;28;20239;-79
2021/03/07 04:44:45;;;;;;;12.40;7.27;;;-2.70;99.90;;;;;;5036824;28;20624;-79
2021/03/07 04:47:29;;;;;;;14.47;7.90;;;-2.70;99.90;;;;;;5035188;28;20210;-79
2021/03/07 04:50:15;;;;;;;13.33;6.90;;;-2.70;99.90;;;;;;5037264;28;20243;-80
2021/03/07 04:53:00;;;;;;;14.03;6.97;;;-2.80;99.90;;;;;;5030326;28;20354;-78
2021/03/07 04:55:45;;;;;;;14.67;7.13;;;-2.80;99.90;;;;;;5032115;28;20206;-80
2021/03/07 04:58:30;;;;;;;14.13;7.00;;;-2.70;99.90;;;;;;5035045;28;20214;-77
2021/03/07 05:01:15;;;;;;;13.80;7.20;;;-2.80;99.90;;;;;;5037795;28;20215;-78
2021/03/07 05:04:00;;;;;;;9.77;6.20;;;-2.80;99.90;;;;;;5032275;28;20204;-78
2021/03/07 05:06:45;;;;;;;14.60;7.57;;;-2.80;99.90;;;;;;5045591;28;20629;-78
2021/03/07 05:09:30;;;;;;;13.60;6.53;;;-2.90;99.90;;;;;;5033355;28;20207;-78
2021/03/07 05:12:15;;;;;;;14.43;7.00;;;-2.90;99.90;;;;;;5031035;28;20277;-78
2021/03/07 05:15:01;;;;;;;11.43;6.63;;;-2.90;99.90;;;;;;5028831;28;20575;-78
2021/03/07 05:17:46;;;;;;;12.03;6.57;;;-2.90;99.90;;;;;;5024951;28;20728;-79
2021/03/07 05:20:30;;;;;;;13.33;7.13;;;-2.90;99.90;;;;;;5036937;28;20263;-78
2021/03/07 05:23:15;;;;;;;14.40;6.20;;;-3.00;99.90;;;;;;5047671;28;20603;-78
2021/03/07 05:26:00;;;;;;;13.33;6.97;;;-3.00;99.90;;;;;;5032390;28;20206;-78
2021/03/07 05:28:47;;;;;;;14.90;6.67;;;-3.00;99.90;;;;;;5027874;28;20207;-78
2021/03/07 05:31:32;;;;;;;14.03;6.67;;;-3.00;99.90;;;;;;5029785;28;20230;-78
2021/03/07 05:34:16;;;;;;;14.97;7.03;;;-3.00;99.90;;;;;;5035897;28;20265;-77
2021/03/07 05:37:01;;;;;;;13.30;7.33;;;-3.00;99.90;;;;;;5034140;28;20220;-78
2021/03/07 05:39:46;;;;;;;12.80;7.03;;;-3.00;99.90;;;;;;5031653;28;20298;-79
2021/03/07 05:42:31;;;;;;;13.03;6.50;;;-3.00;99.90;;;;;;5027492;28;20815;-79
2021/03/07 05:45:17;;;;;;;13.47;7.10;;;-3.10;99.90;;;;;;5035493;28;20250;-79
2021/03/07 05:48:02;;;;;;;12.33;6.70;;;-3.10;99.90;;;;;;5033030;28;20208;-79
2021/03/07 05:50:47;;;;;;;12.27;6.50;;;-3.10;99.90;;;;;;5036128;28;20211;-78
2021/03/07 05:53:32;;;;;;;11.37;6.13;;;-3.10;99.90;;;;;;5021739;28;20202;-78
2021/03/07 05:56:18;;;;;;;11.03;6.23;;;-3.10;99.90;;;;;;5035953;28;20250;-79
2021/03/07 05:59:05;;;;;;;14.33;6.17;;;-3.20;99.90;;;;;;5022900;28;20637;-79
2021/03/07 06:01:50;;;;;;;12.37;6.20;;;-3.20;99.90;;;;;;5033260;28;20251;-79
2021/03/07 06:04:35;;;;;;;13.03;6.77;;;-3.20;99.90;;;;;;5023949;28;20726;-78
2021/03/07 06:07:21;;;;;;;10.93;6.37;;;-3.20;99.90;;;;;;5026697;28;20640;-79
2021/03/07 06:10:11;;;;;;;13.60;6.30;;;-3.20;99.90;;;;;;5023610;28;20757;-79
2021/03/07 06:12:59;;;;;;;11.80;6.23;;;-3.20;99.90;;;;;;5021696;28;20282;-79
2021/03/07 06:15:46;;;;;;;11.30;6.40;;;-3.30;99.90;;;;;;5033237;28;20323;-80
2021/03/07 06:18:41;;;;;;;13.07;6.10;;;-3.30;99.90;;;;;;5033673;28;20230;-78
2021/03/07 06:21:31;;;;;;;14.03;6.57;;;-3.30;99.90;;;;;;5020819;28;20231;-78
2021/03/07 06:24:35;;;;;;;11.23;6.03;;;-3.30;99.90;;;;;;5033016;28;20569;-79
2021/03/07 06:27:21;;;;;;;12.67;6.50;;;-3.30;99.90;;;;;;5029074;28;20302;-78
2021/03/07 06:30:08;;;;;;;18.33;6.73;;;-3.30;99.90;;;;;;5029976;28;20218;-78
2021/03/07 06:32:54;;;;;;;15.20;7.37;;;-3.30;99.90;;;;;;5031537;28;20574;-79
2021/03/07 06:35:40;;;;;;;15.87;7.37;;;-3.30;99.90;;;;;;5027853;28;20286;-79
2021/03/07 06:38:43;;;;;;;14.10;6.73;;;-3.30;99.90;;;;;;5025738;28;20261;-80
2021/03/07 06:41:30;;;;;;;14.03;6.93;;;-3.30;99.90;;;;;;5033453;28;20270;-80
2021/03/07 06:44:17;;;;;;;11.60;7.43;;;-3.30;99.90;;;;;;5031208;28;20219;-79
2021/03/07 06:47:08;;;;;;;23.30;8.00;;;-3.30;99.90;;;;;;5025593;28;20680;-79
2021/03/07 06:50:11;;;;;;;12.13;7.40;;;-3.30;99.90;;;;;;5032208;28;20245;-80
2021/03/07 06:52:58;;;;;;;19.27;7.67;;;-3.30;99.90;;;;;;5031941;28;20319;-80
2021/03/07 06:55:44;;;;;;;15.43;8.53;;;-3.20;99.90;;;;;;5025160;28;20216;-79
2021/03/07 06:58:28;;;;;;;16.37;9.83;;;-3.20;99.90;;;;;;5026207;28;20250;-77
2021/03/07 07:01:17;;;;;;;18.73;10.23;;;-3.10;99.90;;;;;;5034569;28;20207;-79
2021/03/07 07:04:05;;;;;;;18.00;10.73;;;-3.00;99.90;;;;;;5031452;28;20196;-80
2021/03/07 07:07:02;;;;;;;23.47;13.10;;;-2.90;99.90;;;;;;5033541;28;20799;-79
2021/03/07 07:09:56;;;;;;;25.93;13.97;;;-2.80;99.90;;;;;;5021980;28;20207;-79
2021/03/07 07:12:40;;;;;;;23.43;13.43;;;-2.60;99.90;;;;;;5031484;28;20293;-80
2021/03/07 07:15:26;;;;;;;25.00;15.47;;;-2.50;99.90;;;;;;5032939;28;20227;-79
2021/03/07 07:18:11;;;;;;;27.77;15.87;;;-2.30;99.90;;;;;;5034107;28;20236;-78
2021/03/07 07:20:57;;;;;;;29.93;16.73;;;-2.20;99.90;;;;;;5052461;28;20211;-77
2021/03/07 07:23:42;;;;;;;27.43;17.33;;;-2.00;99.90;;;;;;5055269;28;20312;-78
2021/03/07 07:26:28;;;;;;;32.17;18.37;;;-1.90;99.90;;;;;;5052736;28;20200;-77
2021/03/07 07:29:13;;;;;;;33.93;17.73;;;-1.80;99.90;;;;;;5048791;28;20319;-78
2021/03/07 07:32:07;;;;;;;31.00;17.50;;;-1.70;99.90;;;;;;5034257;28;20226;-79
2021/03/07 07:34:56;;;;;;;34.77;18.70;;;-1.50;99.90;;;;;;5028236;28;20222;-79
2021/03/07 07:37:47;;;;;;;34.10;18.17;;;-1.40;99.90;;;;;;5025547;28;20209;-78
2021/03/07 07:40:37;;;;;;;37.37;19.97;;;-1.30;99.90;;;;;;5028693;28;20679;-79
2021/03/07 07:43:22;;;;;;;36.97;18.53;;;-1.20;99.90;;;;;;5036627;28;20330;-78
2021/03/07 07:46:12;;;;;;;32.33;18.23;;;-1.10;99.90;;;;;;5024615;28;20234;-79
2021/03/07 07:48:59;;;;;;;27.97;16.57;;;-1.00;99.90;;;;;;5032431;28;20224;-79
2021/03/07 07:51:44;;;;;;;28.97;15.97;;;-0.80;99.90;;;;;;5028295;28;20243;-79
2021/03/07 07:54:49;;;;;;;33.03;17.47;;;-0.80;99.90;;;;;;5031961;28;20203;-79
2021/03/07 07:57:48;;;;;;;32.63;19.07;;;-0.70;99.90;;;;;;5021055;28;20616;-79
2021/03/07 08:00:48;;;;;;;36.27;19.27;;;-0.50;99.90;;;;;;5033121;28;20231;-78
2021/03/07 08:03:35;;;;;;;35.67;18.50;;;-0.40;99.90;;;;;;5032599;28;20219;-78
2021/03/07 08:06:43;;;;;;;36.47;19.67;;;-0.20;99.90;;;;;;5023062;28;20251;-77
2021/03/07 08:09:55;;;;;;;32.23;18.10;;;-0.10;99.90;;;;;;5024639;28;20210;-79
2021/03/07 08:12:52;;;;;;;35.37;18.27;;;0.10;99.90;;;;;;5017482;28;20583;-79
2021/03/07 08:15:46;;;;;;;32.33;19.27;;;0.30;99.90;;;;;;5031061;28;20606;-79
2021/03/07 08:18:49;;;;;;;38.93;21.20;;;0.50;99.90;;;;;;5028263;28;20254;-79
2021/03/07 08:21:57;;;;;;;34.90;20.23;;;0.70;99.90;;;;;;5028792;28;20319;-79
2021/03/07 08:24:57;;;;;;;37.60;23.87;;;0.90;99.90;;;;;;5030438;28;20290;-79
2021/03/07 08:27:42;;;;;;;39.83;23.27;;;1.10;99.90;;;;;;5030313;28;20207;-78
2021/03/07 08:30:37;;;;;;;35.57;21.53;;;1.30;99.90;;;;;;5028825;28;20207;-78
2021/03/07 08:33:24;;;;;;;37.70;23.33;;;1.50;99.90;;;;;;5028753;28;20219;-80
2021/03/07 08:36:11;;;;;;;38.77;22.87;;;1.70;99.90;;;;;;5033624;28;20672;-78
2021/03/07 08:39:17;;;;;;;36.63;22.03;;;1.90;99.90;;;;;;5027185;28;20302;-80
2021/03/07 08:42:02;;;;;;;37.23;20.47;;;2.20;99.90;;;;;;5028733;28;20230;-78
2021/03/07 08:45:20;;;;;;;35.37;21.43;;;2.50;99.90;;;;;;5030184;28;20216;-80
2021/03/07 08:48:06;;;;;;;27.63;18.67;;;2.70;99.90;;;;;;5026423;28;20283;-81
2021/03/07 08:50:51;;;;;;;29.07;16.67;;;3.00;99.90;;;;;;5027816;28;20210;-81
2021/03/07 08:53:38;;;;;;;25.43;14.67;;;3.20;99.90;;;;;;5027222;28;20632;-80
2021/03/07 08:56:32;;;;;;;20.47;12.87;;;3.40;99.90;;;;;;5029146;28;20583;-82
2021/03/07 08:59:18;;;;;;;18.40;10.67;;;3.70;99.90;;;;;;5024835;28;20243;-80
2021/03/07 09:02:05;;;;;;;11.93;7.97;;;3.90;99.90;;;;;;5027690;28;20270;-80
2021/03/07 09:04:50;;;;;;;10.93;6.10;;;4.20;99.90;;;;;;5033001;28;20206;-81
2021/03/07 09:07:34;;;;;;;10.27;5.13;;;4.40;99.90;;;;;;5029709;28;20207;-81
2021/03/07 09:10:30;;;;;;;11.77;4.50;;;4.60;99.90;;;;;;5032468;28;20207;-81
2021/03/07 09:13:17;;;;;;;9.60;4.27;;;4.80;99.90;;;;;;5027643;28;20724;-82
2021/03/07 09:16:04;;;;;;;6.63;3.80;;;5.00;99.90;;;;;;5033050;28;20207;-80
2021/03/07 09:18:50;;;;;;;7.10;3.57;;;5.20;99.90;;;;;;5040935;28;20206;-82
2021/03/07 09:21:35;;;;;;;7.30;3.80;;;5.30;99.90;;;;;;5031142;28;20231;-82
2021/03/07 09:24:19;;;;;;;8.40;3.97;;;5.50;99.90;;;;;;5032291;28;20299;-82
2021/03/07 09:27:09;;;;;;;7.07;4.17;;;5.70;99.90;;;;;;5028139;28;20230;-81
2021/03/07 09:29:56;;;;;;;9.33;4.20;;;5.90;99.90;;;;;;5032185;28;20255;-81
2021/03/07 09:32:43;;;;;;;6.80;4.03;;;6.10;99.90;;;;;;5033605;28;20223;-81
2021/03/07 09:35:31;;;;;;;8.13;4.00;;;6.30;99.90;;;;;;5032475;28;20239;-80
2021/03/07 09:38:16;;;;;;;6.47;4.17;;;6.50;99.90;;;;;;5033529;28;20270;-82
2021/03/07 09:41:01;;;;;;;6.60;4.03;;;6.80;99.90;;;;;;5031434;28;20714;-80
2021/03/07 09:43:48;;;;;;;3.73;3.03;;;6.90;99.90;;;;;;5037046;28;20754;-80
2021/03/07 09:46:35;;;;;;;8.73;3.73;;;7.30;99.90;;;;;;5035337;28;20235;-81
2021/03/07 09:49:22;;;;;;;7.10;3.40;;;7.50;99.90;;;;;;5034399;28;20249;-81
2021/03/07 09:52:08;;;;;;;5.57;3.37;;;7.60;99.90;;;;;;5034089;28;20307;-81
2021/03/07 09:54:56;;;;;;;5.10;2.93;;;8.00;99.90;;;;;;5034468;28;20738;-81
2021/03/07 09:57:40;;;;;;;4.97;2.90;;;8.50;99.90;;;;;;5034561;28;20234;-81
2021/03/07 10:00:26;;;;;;;6.63;2.83;;;9.20;99.90;;;;;;5032897;28;20223;-82
2021/03/07 10:03:19;;;;;;;6.93;2.43;;;9.90;99.90;;;;;;5031601;28;20386;-81
2021/03/07 10:06:05;;;;;;;5.13;2.70;;;10.60;99.90;;;;;;5029252;28;20219;-81
2021/03/07 10:09:06;;;;;;;3.50;2.57;;;11.10;99.90;;;;;;5033694;28;20277;-81
2021/03/07 10:12:01;;;;;;;4.83;2.47;;;11.70;99.90;;;;;;5032648;28;20310;-80
2021/03/07 10:14:52;;;;;;;2.13;1.70;;;12.20;99.90;;;;;;5030195;28;20203;-82
2021/03/07 10:17:40;;;;;;;3.00;1.60;;;12.90;98.70;;;;;;5031631;28;20200;-81
2021/03/07 10:20:32;;;;;;;3.70;1.97;;;13.40;94.20;;;;;;5030859;28;20740;-81
2021/03/07 10:23:18;;;;;;;3.90;2.10;;;13.90;96.60;;;;;;5031447;28;20227;-82
2021/03/07 10:26:05;;;;;;;3.40;1.63;;;14.20;93.50;;;;;;5029630;28;20209;-80
2021/03/07 10:28:49;;;;;;;3.57;1.80;;;14.50;87.20;;;;;;5031141;28;20212;-80
2021/03/07 10:31:34;;;;;;;2.50;1.63;;;14.80;90.00;;;;;;5030146;28;20658;-81
2021/03/07 10:34:30;;;;;;;3.37;2.17;;;15.20;84.80;;;;;;5030428;28;20701;-81
2021/03/07 10:37:38;;;;;;;2.97;1.53;;;15.70;86.60;;;;;;5032581;28;20210;-83
2021/03/07 10:40:30;;;;;;;3.33;1.77;;;16.30;86.00;;;;;;5031993;28;20263;-81
2021/03/07 10:43:16;;;;;;;2.07;1.40;;;16.90;81.00;;;;;;5038042;28;20763;-82
2021/03/07 10:46:01;;;;;;;1.70;1.57;;;17.50;76.00;;;;;;5036377;28;20212;-83
2021/03/07 10:48:46;;;;;;;1.47;1.13;;;18.20;70.80;;;;;;5033543;28;20286;-81
2021/03/07 10:51:31;;;;;;;2.20;1.30;;;18.80;71.80;;;;;;5033666;28;20228;-83
2021/03/07 10:54:16;;;;;;;1.90;1.30;;;19.50;65.10;;;;;;5034356;28;20216;-83
2021/03/07 10:57:01;;;;;;;3.83;1.70;;;20.20;66.50;;;;;;5034642;28;20706;-84
2021/03/07 10:59:51;;;;;;;3.07;1.47;;;20.80;63.30;;;;;;5023581;28;20219;-82
2021/03/07 11:02:36;;;;;;;3.43;1.30;;;21.60;63.10;;;;;;5026791;28;20241;-83
2021/03/07 11:05:22;;;;;;;2.47;1.40;;;22.20;59.30;;;;;;5040908;28;20205;-83
2021/03/07 11:08:06;;;;;;;3.10;1.27;;;22.80;56.60;;;;;;5035432;28;20655;-82
2021/03/07 11:10:51;;;;;;;1.97;0.93;;;23.10;53.20;;;;;;5026890;28;20288;-83
2021/03/07 11:13:36;;;;;;;1.23;1.13;;;23.20;54.60;;;;;;5033778;28;20705;-83
2021/03/07 11:16:21;;;;;;;2.00;1.30;;;23.00;53.20;;;;;;5027984;28;20236;-82
2021/03/07 11:19:06;;;;;;;2.67;1.53;;;23.10;51.10;;;;;;5033077;28;20233;-83
2021/03/07 11:21:51;;;;;;;1.60;1.50;;;23.00;52.10;;;;;;5025783;28;20230;-82
2021/03/07 11:24:36;;;;;;;1.77;1.20;;;22.80;51.40;;;;;;5028101;28;20221;-83
2021/03/07 11:27:21;;;;;;;3.23;1.40;;;22.80;49.20;;;;;;5043615;28;20225;-82
2021/03/07 11:30:08;;;;;;;2.30;1.70;;;22.90;50.40;;;;;;5031900;28;20202;-82
2021/03/07 11:32:56;;;;;;;2.27;1.80;;;23.20;50.20;;;;;;5034199;28;20290;-82
2021/03/07 11:35:41;;;;;;;2.97;1.60;;;23.40;51.40;;;;;;5023815;28;20578;-80
2021/03/07 11:38:26;;;;;;;2.17;1.40;;;23.60;50.80;;;;;;5033999;28;20218;-81
2021/03/07 11:41:11;;;;;;;2.90;2.33;;;23.80;49.30;;;;;;5034518;28;20542;-82
2021/03/07 11:43:56;;;;;;;3.20;1.60;;;23.80;50.30;;;;;;5028338;28;20277;-82
2021/03/07 11:46:41;;;;;;;2.40;1.40;;;23.80;49.50;;;;;;5034481;28;20254;-82
2021/03/07 11:49:27;;;;;;;3.20;1.50;;;23.80;47.20;;;;;;5022233;28;20298;-82
2021/03/07 11:52:11;;;;;;;3.00;2.20;;;24.00;47.30;;;;;;5023978;28;20290;-82
2021/03/07 11:54:56;;;;;;;3.87;1.60;;;24.40;46.00;;;;;;5035861;28;20212;-83
2021/03/07 11:57:41;;;;;;;3.20;1.40;;;24.70;46.40;;;;;;5029293;28;20220;-83
2021/03/07 12:00:26;;;;;;;1.50;1.37;;;25.00;47.00;;;;;;5033270;28;20206;-82
2021/03/07 12:03:11;;;;;;;2.90;1.30;;;25.20;44.60;;;;;;5026986;28;20237;-83
2021/03/07 12:05:57;;;;;;;3.33;2.73;;;25.50;43.40;;;;;;5035749;28;20206;-82
2021/03/07 12:08:42;;;;;;;3.17;1.93;;;25.90;45.10;;;;;;5039793;28;20226;-82
2021/03/07 12:11:26;;;;;;;2.70;1.47;;;26.20;45.90;;;;;;5033318;28;20243;-83
2021/03/07 12:14:11;;;;;;;2.57;1.53;;;26.40;44.40;;;;;;5040362;28;20213;-83
2021/03/07 12:16:56;;;;;;;1.88;1.50;;;26.50;44.00;;;;;;5041512;28;20259;-84
2021/03/07 12:19:48;;;;;;;1.40;1.30;;;26.60;45.30;;;;;;5024918;28;20287;-83
2021/03/07 12:22:34;;;;;;;2.45;1.42;;;26.70;44.00;;;;;;5035624;28;20421;-84
2021/03/07 12:25:19;;;;;;;2.63;1.45;;;26.80;43.70;;;;;;5052362;28;20217;-83
2021/03/07 12:28:04;;;;;;;3.13;1.50;;;27.00;45.00;;;;;;5041603;28;20203;-84
2021/03/07 12:30:50;;;;;;;1.67;1.38;;;27.30;42.60;;;;;;5041949;28;20267;-83
2021/03/07 12:33:36;;;;;;;4.77;1.97;;;27.50;43.20;;;;;;5036296;28;20221;-83
2021/03/07 12:36:21;;;;;;;3.10;1.95;;;27.70;43.10;;;;;;5044455;28;20201;-84
2021/03/07 12:39:07;;;;;;;3.40;1.65;;;27.60;42.20;;;;;;5039084;28;20204;-82
2021/03/07 12:41:52;;;;;;;2.63;1.70;;;27.40;41.30;;;;;;5031888;28;20230;-81
2021/03/07 12:44:37;;;;;;;3.37;1.97;;;27.00;42.70;;;;;;5037778;28;20206;-81
2021/03/07 12:47:21;;;;;;;2.83;1.90;;;26.50;41.60;;;;;;5040833;28;20205;-81
2021/03/07 12:50:07;;;;;;;1.90;1.70;;;26.00;42.70;;;;;;5040818;28;20221;-83
2021/03/07 12:52:52;;;;;;;2.87;1.90;;;25.50;43.00;;;;;;5045827;28;20249;-82
2021/03/07 12:55:38;;;;;;;3.70;1.70;;;25.00;42.60;;;;;;5030175;28;20804;-81
2021/03/07 12:58:25;;;;;;;2.63;1.57;;;24.50;43.60;;;;;;5042387;28;20304;-81
2021/03/07 13:01:10;;;;;;;3.30;1.93;;;24.10;44.40;;;;;;5042325;28;20237;-80
2021/03/07 13:03:54;;;;;;;2.27;2.07;;;23.70;44.30;;;;;;5040326;28;20258;-80
2021/03/07 13:06:39;;;;;;;2.37;1.70;;;23.30;44.80;;;;;;5045110;28;20249;-81
2021/03/07 13:09:24;;;;;;;1.93;1.70;;;22.70;45.00;;;;;;5032105;28;20245;-82
2021/03/07 13:12:10;;;;;;;2.90;1.70;;;22.40;46.40;;;;;;5048247;28;20308;-82
2021/03/07 13:14:56;;;;;;;2.93;2.10;;;22.00;46.30;;;;;;5044098;28;20253;-82
2021/03/07 13:17:43;;;;;;;5.37;2.30;;;21.50;47.70;;;;;;5042498;28;20211;-82
2021/03/07 13:20:28;;;;;;;3.77;2.20;;;21.20;47.00;;;;;;5035715;28;20204;-81
2021/03/07 13:23:13;;;;;;;3.17;1.80;;;20.80;48.00;;;;;;5041397;28;20220;-82
2021/03/07 13:25:58;;;;;;;2.43;1.80;;;20.60;48.10;;;;;;5044182;28;20207;-81
2021/03/07 13:28:44;;;;;;;3.57;2.10;;;20.40;49.10;;;;;;5054098;28;20226;-83
2021/03/07 13:31:29;;;;;;;3.40;2.30;;;20.10;49.10;;;;;;5040857;28;20285;-82
2021/03/07 13:34:13;;;;;;;5.50;2.30;;;19.70;49.40;;;;;;5040097;28;20297;-82
2021/03/07 13:36:58;;;;;;;2.80;1.90;;;19.40;50.10;;;;;;5052204;28;20352;-82
2021/03/07 13:39:43;;;;;;;2.43;2.03;;;19.00;51.00;;;;;;5041904;28;20202;-82
2021/03/07 13:42:27;;;;;;;4.77;2.33;;;18.70;51.00;;;;;;5045466;28;20253;-82
2021/03/07 13:45:15;;;;;;;2.73;2.10;;;18.40;51.90;;;;;;5039264;28;20204;-82
2021/03/07 13:48:00;;;;;;;3.13;1.70;;;18.10;51.20;;;;;;5040611;28;20561;-82
2021/03/07 13:50:45;;;;;;;6.73;2.70;;;17.80;51.90;;;;;;5046561;28;20248;-82
2021/03/07 13:53:30;;;;;;;4.43;2.53;;;17.50;53.70;;;;;;5037809;28;21237;-82
2021/03/07 13:56:15;;;;;;;4.33;2.70;;;17.20;55.20;;;;;;5068622;28;20305;-80
2021/03/07 13:59:00;;;;;;;3.47;2.50;;;16.80;55.30;;;;;;5044538;28;20251;-81
2021/03/07 14:01:46;;;;;;;4.40;3.10;;;16.60;55.60;;;;;;5037749;28;20235;-81
2021/03/07 14:04:31;;;;;;;4.20;3.00;;;16.40;55.90;;;;;;5030090;28;20214;-82
2021/03/07 14:07:16;;;;;;;5.97;3.03;;;16.00;57.40;;;;;;5037343;28;20203;-81
2021/03/07 14:10:00;;;;;;;4.27;2.57;;;15.70;56.80;;;;;;5037950;28;20237;-82
2021/03/07 14:12:45;;;;;;;5.80;2.57;;;15.40;57.50;;;;;;5026508;28;20225;-81
2021/03/07 14:15:31;;;;;;;3.07;2.30;;;15.20;58.50;;;;;;5037903;28;20218;-83
2021/03/07 14:18:16;;;;;;;4.10;2.17;;;15.00;58.20;;;;;;5040378;28;20260;-82
2021/03/07 14:21:02;;;;;;;5.27;2.30;;;14.90;58.80;;;;;;5026036;28;20247;-82
2021/03/07 14:23:46;;;;;;;3.77;2.50;;;14.70;59.00;;;;;;5032323;28;20209;-82